Time;durP1;ratioP1;P1;durP2;ratioP2;P2;SDS_P1;SDS_P2;PMS_P1;PMS_P2;Temp;Humidity;BMP_temperature;BMP_pressure;BME280_temperature;BME280_humidity;BME280_pressure;Samples;Min_cycle;Max_cycle;Signal;HPM_P1;HPM_P2
2024/01/12 00:00:28;;;;;;;204.43;55.58;;;;;;;1.11;100.00;103374.34;5099168;27;20028;-73
2024/01/12 00:02:53;;;;;;;223.13;60.63;;;;;;;1.09;100.00;103378.69;5096092;27;20489;-73
2024/01/12 00:05:19;;;;;;;200.80;56.75;;;;;;;0.94;100.00;103383.66;5101402;27;20501;-73
2024/01/12 00:07:44;;;;;;;209.00;54.90;;;;;;;0.98;100.00;103382.88;5098132;27;20086;-73
2024/01/12 00:10:10;;;;;;;197.77;52.95;;;;;;;1.11;100.00;103384.88;5097581;27;20455;-73
2024/01/12 00:12:36;;;;;;;190.27;52.95;;;;;;;1.11;100.00;103379.63;5097195;27;20048;-73
2024/01/12 00:15:03;;;;;;;209.10;55.35;;;;;;;0.98;100.00;103381.13;5063857;27;20099;-74
2024/01/12 00:17:28;;;;;;;200.65;55.03;;;;;;;1.08;100.00;103382.16;5104510;27;20106;-73
2024/01/12 00:19:54;;;;;;;192.55;55.47;;;;;;;0.96;100.00;103376.72;5098233;27;20036;-73
2024/01/12 00:22:20;;;;;;;239.43;61.05;;;;;;;0.83;100.00;103375.59;5092958;27;20043;-73
2024/01/12 00:24:45;;;;;;;186.30;54.20;;;;;;;0.88;100.00;103371.31;5083525;27;20032;-74
2024/01/12 00:27:11;;;;;;;178.52;50.88;;;;;;;0.93;100.00;103372.28;5093493;27;20040;-73
2024/01/12 00:29:36;;;;;;;200.82;54.72;;;;;;;0.99;100.00;103371.50;5100871;27;20105;-73
2024/01/12 00:32:05;;;;;;;206.20;54.17;;;;;;;1.01;100.00;103372.44;5073785;27;20039;-73
2024/01/12 00:34:30;;;;;;;184.32;52.38;;;;;;;1.08;100.00;103358.53;5090331;27;20097;-73
2024/01/12 00:36:56;;;;;;;212.52;56.88;;;;;;;1.06;100.00;103364.63;5081021;27;20032;-73
2024/01/12 00:39:21;;;;;;;224.52;59.38;;;;;;;0.82;100.00;103368.59;5096402;27;20791;-73
2024/01/12 00:41:50;;;;;;;217.32;56.20;;;;;;;0.94;100.00;103379.31;5060087;27;20222;-73
2024/01/12 00:44:19;;;;;;;194.75;53.70;;;;;;;1.03;100.00;103376.84;5088583;27;20061;-73
2024/01/12 00:46:45;;;;;;;221.88;58.45;;;;;;;1.04;100.00;103369.84;5092941;27;21400;-73
2024/01/12 00:49:11;;;;;;;207.32;60.17;;;;;;;0.89;100.00;103380.09;5095292;27;20093;-73
2024/01/12 00:51:37;;;;;;;213.00;58.08;;;;;;;0.89;100.00;103378.34;5074096;27;20123;-73
2024/01/12 00:54:04;;;;;;;230.43;60.50;;;;;;;0.92;100.00;103388.91;5089675;27;20432;-73
2024/01/12 00:56:30;;;;;;;209.98;53.42;;;;;;;1.04;100.00;103391.72;5094386;27;20024;-73
2024/01/12 00:58:55;;;;;;;233.05;60.20;;;;;;;1.11;100.00;103390.13;5077201;27;21443;-73
2024/01/12 01:01:22;;;;;;;204.60;52.40;;;;;;;1.06;100.00;103397.03;5097449;27;20032;-73
2024/01/12 01:03:48;;;;;;;211.77;54.20;;;;;;;1.03;100.00;103392.59;5095373;27;20085;-72
2024/01/12 01:06:14;;;;;;;183.20;48.22;;;;;;;1.18;100.00;103398.97;5092067;27;20085;-73
2024/01/12 01:08:40;;;;;;;150.02;43.50;;;;;;;1.17;100.00;103390.22;5093141;27;20638;-73
2024/01/12 01:11:05;;;;;;;222.40;56.30;;;;;;;1.10;100.00;103398.84;5069559;28;20036;-73
2024/01/12 01:13:31;;;;;;;220.02;56.90;;;;;;;0.88;100.00;103394.06;5095020;27;20036;-73
2024/01/12 01:15:57;;;;;;;215.85;59.55;;;;;;;0.91;100.00;103395.03;5073601;27;20114;-73
2024/01/12 01:18:23;;;;;;;168.30;44.28;;;;;;;1.12;100.00;103394.50;5076628;27;20104;-73
2024/01/12 01:20:49;;;;;;;169.35;51.35;;;;;;;1.16;100.00;103393.72;5079204;27;20118;-73
2024/01/12 01:23:15;;;;;;;205.38;58.03;;;;;;;1.21;100.00;103391.16;5089905;27;20040;-73
2024/01/12 01:25:41;;;;;;;179.30;49.33;;;;;;;1.23;100.00;103400.81;5090819;27;20825;-73
2024/01/12 01:28:06;;;;;;;205.27;55.78;;;;;;;1.25;100.00;103398.22;5079784;27;20037;-73
2024/01/12 01:30:32;;;;;;;205.40;52.38;;;;;;;1.23;100.00;103403.44;5085344;27;20036;-73
2024/01/12 01:32:58;;;;;;;174.13;49.05;;;;;;;1.23;100.00;103406.06;5093716;27;20035;-73
2024/01/12 01:35:23;;;;;;;195.85;52.83;;;;;;;1.24;100.00;103399.06;5073290;28;20025;-73
2024/01/12 01:37:50;;;;;;;179.43;51.22;;;;;;;1.28;100.00;103395.66;5072229;27;20461;-73
2024/01/12 01:40:15;;;;;;;177.60;50.85;;;;;;;1.23;100.00;103381.53;5090078;27;20040;-73
2024/01/12 01:42:41;;;;;;;201.80;53.97;;;;;;;1.16;100.00;103384.94;5091676;27;20064;-74
2024/01/12 01:45:07;;;;;;;194.20;53.95;;;;;;;1.19;100.00;103390.22;5091266;27;20344;-74
2024/01/12 01:47:32;;;;;;;196.85;52.13;;;;;;;1.23;100.00;103385.06;5091795;27;20775;-74
2024/01/12 01:49:58;;;;;;;140.88;43.08;;;;;;;1.27;100.00;103393.88;5065933;27;20137;-73
2024/01/12 01:52:26;;;;;;;198.57;55.60;;;;;;;1.15;100.00;103386.66;5091935;27;20037;-73
2024/01/12 01:54:53;;;;;;;177.90;51.40;;;;;;;1.22;100.00;103391.19;5099722;27;20120;-73
2024/01/12 01:57:20;;;;;;;151.70;46.00;;;;;;;1.27;100.00;103392.13;5092159;27;20038;-73
2024/01/12 01:59:46;;;;;;;178.05;49.75;;;;;;;1.27;100.00;103388.63;5094534;27;20032;-73
2024/01/12 02:02:12;;;;;;;158.63;47.20;;;;;;;1.30;100.00;103391.28;5093442;27;20030;-73
2024/01/12 02:04:37;;;;;;;162.02;51.80;;;;;;;1.24;100.00;103394.69;5077361;27;20036;-73
2024/01/12 02:07:04;;;;;;;206.35;56.22;;;;;;;1.24;100.00;103394.69;5060745;28;20176;-73
2024/01/12 02:09:33;;;;;;;163.20;45.22;;;;;;;1.28;100.00;103379.88;5082285;27;20044;-73
2024/01/12 02:11:59;;;;;;;198.18;52.60;;;;;;;1.22;100.00;103377.16;5086646;27;20937;-73
2024/01/12 02:14:25;;;;;;;199.43;56.92;;;;;;;1.27;100.00;103379.00;5097992;27;20047;-73
2024/01/12 02:16:52;;;;;;;186.27;52.22;;;;;;;1.32;100.00;103365.06;5072269;27;20944;-73
2024/01/12 02:19:17;;;;;;;162.30;52.20;;;;;;;1.29;100.00;103368.50;5081072;27;20918;-73
2024/01/12 02:21:43;;;;;;;169.00;45.22;;;;;;;1.31;100.00;103365.91;5092721;27;20033;-73
2024/01/12 02:24:08;;;;;;;172.93;52.47;;;;;;;1.14;100.00;103368.25;5088546;27;20032;-73
2024/01/12 02:26:34;;;;;;;185.55;50.40;;;;;;;1.26;100.00;103363.22;5066293;28;20796;-73
2024/01/12 02:29:02;;;;;;;183.00;54.45;;;;;;;1.29;100.00;103366.75;5072168;27;20069;-73
2024/01/12 02:31:29;;;;;;;182.48;51.55;;;;;;;1.32;100.00;103357.16;5073933;27;20532;-73
2024/01/12 02:33:54;;;;;;;175.93;50.20;;;;;;;1.25;100.00;103362.28;5068196;28;21053;-73
2024/01/12 02:36:20;;;;;;;196.38;54.38;;;;;;;1.20;100.00;103382.38;5087798;27;20032;-74
2024/01/12 02:38:49;;;;;;;184.05;53.40;;;;;;;1.23;100.00;103373.66;5058634;27;20489;-73
2024/01/12 02:41:14;;;;;;;172.50;45.85;;;;;;;1.28;100.00;103369.38;5093409;27;20028;-73
2024/01/12 02:43:40;;;;;;;150.32;44.40;;;;;;;1.23;100.00;103366.66;5092860;27;20517;-73
2024/01/12 02:46:06;;;;;;;162.48;47.63;;;;;;;1.22;100.00;103375.41;5084379;27;20028;-72
2024/01/12 02:48:31;;;;;;;150.73;42.85;;;;;;;1.30;100.00;103370.25;5088179;27;20694;-72
2024/01/12 02:50:57;;;;;;;172.63;50.78;;;;;;;1.23;100.00;103364.03;5084968;27;20721;-73
2024/01/12 02:53:23;;;;;;;183.88;52.53;;;;;;;1.23;100.00;103365.78;5091089;27;20032;-72
2024/01/12 02:55:48;;;;;;;201.07;53.85;;;;;;;1.19;100.00;103367.47;5096279;27;20097;-72
2024/01/12 02:58:14;;;;;;;176.55;51.55;;;;;;;1.27;100.00;103363.22;5099072;27;20436;-73
2024/01/12 03:00:39;;;;;;;147.38;45.33;;;;;;;1.27;100.00;103367.59;5090220;27;20032;-73
2024/01/12 03:03:05;;;;;;;178.43;52.42;;;;;;;1.18;100.00;103367.44;5086309;27;20033;-73
2024/01/12 03:05:31;;;;;;;194.02;53.58;;;;;;;1.25;100.00;103372.81;5070221;28;20032;-73
2024/01/12 03:07:57;;;;;;;186.57;50.80;;;;;;;1.24;100.00;103373.69;5087636;27;20043;-72
2024/01/12 03:10:23;;;;;;;212.98;57.75;;;;;;;1.30;100.00;103372.88;5097790;27;20535;-73
2024/01/12 03:12:48;;;;;;;190.30;54.08;;;;;;;1.27;100.00;103367.59;5085796;27;20034;-73
2024/01/12 03:15:14;;;;;;;200.90;55.40;;;;;;;1.17;100.00;103369.19;5091474;27;20028;-73
2024/01/12 03:17:40;;;;;;;172.05;45.33;;;;;;;1.31;100.00;103369.44;5092249;27;20643;-73
2024/01/12 03:20:08;;;;;;;129.77;38.35;;;;;;;1.31;100.00;103358.03;5088912;27;20037;-72
2024/01/12 03:22:34;;;;;;;173.38;51.30;;;;;;;1.32;100.00;103347.53;5096736;27;20032;-73
2024/01/12 03:25:00;;;;;;;212.82;56.78;;;;;;;1.18;100.00;103349.94;5069263;27;20067;-73
2024/01/12 03:27:27;;;;;;;210.55;58.20;;;;;;;1.31;100.00;103352.78;5097595;27;20069;-73
2024/01/12 03:29:52;;;;;;;176.45;51.90;;;;;;;1.33;100.00;103343.16;5100531;27;20024;-73
2024/01/12 03:32:18;;;;;;;161.50;47.17;;;;;;;1.36;100.00;103335.34;5091688;27;20555;-73
2024/01/12 03:34:43;;;;;;;128.85;39.10;;;;;;;1.38;100.00;103333.59;5075405;27;20252;-73
2024/01/12 03:37:09;;;;;;;187.57;52.63;;;;;;;1.37;100.00;103326.56;5099794;27;20043;-73
2024/01/12 03:39:34;;;;;;;193.75;54.38;;;;;;;1.37;100.00;103334.47;5081756;27;20046;-73
2024/01/12 03:42:00;;;;;;;217.82;55.95;;;;;;;1.16;100.00;103330.66;5077073;28;20074;-73
2024/01/12 03:44:25;;;;;;;227.23;59.20;;;;;;;1.19;100.00;103328.03;5085351;27;20036;-73
2024/01/12 03:46:50;;;;;;;205.73;51.38;;;;;;;1.12;100.00;103341.97;5057403;28;20052;-72
2024/01/12 03:49:17;;;;;;;184.07;50.60;;;;;;;1.09;100.00;103360.28;5080028;27;20245;-73
2024/01/12 03:51:43;;;;;;;219.10;56.22;;;;;;;1.18;100.00;103355.19;5106361;27;20051;-73
2024/01/12 03:54:09;;;;;;;179.02;49.58;;;;;;;1.27;100.00;103357.97;5082028;27;20031;-73
2024/01/12 03:56:35;;;;;;;193.20;52.97;;;;;;;1.07;100.00;103353.25;5082671;27;20102;-73
2024/01/12 03:59:00;;;;;;;188.13;52.30;;;;;;;1.20;100.00;103357.84;5086773;27;21235;-74
2024/01/12 04:01:26;;;;;;;177.80;50.88;;;;;;;1.23;100.00;103347.38;5098505;27;20556;-73
2024/01/12 04:03:51;;;;;;;205.02;54.88;;;;;;;1.19;100.00;103354.31;5081083;28;20552;-72
2024/01/12 04:06:18;;;;;;;147.40;43.60;;;;;;;1.29;100.00;103356.25;5065960;27;20894;-73
2024/01/12 04:08:44;;;;;;;202.52;55.75;;;;;;;0.86;100.00;103357.28;5098331;27;20041;-73
2024/01/12 04:11:19;;;;;;;177.52;52.72;;;;;;;1.06;100.00;103357.63;5099676;27;20512;-73
2024/01/12 04:13:44;;;;;;;218.77;55.85;;;;;;;1.20;100.00;103349.94;5082159;27;20020;-72
2024/01/12 04:16:10;;;;;;;211.05;52.67;;;;;;;1.23;100.00;103350.91;5076038;27;20063;-72
2024/01/12 04:18:35;;;;;;;180.20;52.92;;;;;;;1.20;100.00;103348.19;5105751;27;20020;-73
2024/01/12 04:21:01;;;;;;;181.00;51.63;;;;;;;1.21;100.00;103343.88;5095454;27;20714;-73
2024/01/12 04:23:26;;;;;;;172.57;50.28;;;;;;;1.24;100.00;103347.41;5058529;27;20049;-73
2024/01/12 04:25:52;;;;;;;212.27;56.38;;;;;;;1.19;100.00;103353.44;5097088;27;20031;-73
2024/01/12 04:28:18;;;;;;;180.43;53.15;;;;;;;1.17;100.00;103342.91;5102074;27;20835;-73
2024/01/12 04:30:43;;;;;;;212.60;56.90;;;;;;;1.13;100.00;103340.22;5102051;27;20036;-73
2024/01/12 04:33:09;;;;;;;207.35;53.63;;;;;;;1.11;100.00;103345.44;5102039;27;20036;-73
2024/01/12 04:35:34;;;;;;;198.38;52.95;;;;;;;1.17;100.00;103335.03;5095365;27;20051;-73
2024/01/12 04:38:00;;;;;;;168.85;47.03;;;;;;;1.25;100.00;103320.25;5100731;27;20675;-73
2024/01/12 04:40:26;;;;;;;199.23;55.22;;;;;;;1.27;100.00;103315.03;5087631;28;20049;-73
2024/01/12 04:42:51;;;;;;;198.27;54.40;;;;;;;1.21;100.00;103322.84;5088418;27;20440;-72
2024/01/12 04:45:17;;;;;;;167.88;47.67;;;;;;;1.23;100.00;103327.25;5077876;28;20040;-73
2024/01/12 04:47:43;;;;;;;194.60;54.58;;;;;;;1.17;100.00;103323.66;5075805;27;20036;-73
2024/01/12 04:50:08;;;;;;;212.52;55.15;;;;;;;1.16;100.00;103317.50;5089746;27;20032;-73
2024/01/12 04:52:34;;;;;;;165.98;50.83;;;;;;;1.19;100.00;103308.78;5091053;27;20314;-72
2024/01/12 04:55:00;;;;;;;196.68;55.97;;;;;;;1.10;100.00;103312.13;5092409;27;20039;-73
2024/01/12 04:57:25;;;;;;;197.18;52.42;;;;;;;1.15;100.00;103310.47;5094486;27;20050;-72
2024/01/12 04:59:51;;;;;;;182.88;53.42;;;;;;;1.22;100.00;103308.84;5086610;27;20091;-73
2024/01/12 05:02:16;;;;;;;185.00;51.35;;;;;;;1.08;100.00;103308.63;5090250;27;20040;-74
2024/01/12 05:04:42;;;;;;;157.73;46.85;;;;;;;1.27;100.00;103310.66;5087814;27;20040;-73
2024/01/12 05:07:07;;;;;;;181.45;50.83;;;;;;;1.31;100.00;103314.22;5093418;27;20107;-73
2024/01/12 05:09:33;;;;;;;206.10;56.03;;;;;;;1.12;100.00;103326.19;5076513;27;20125;-74
2024/01/12 05:12:03;;;;;;;177.27;51.53;;;;;;;1.23;100.00;103321.97;5069362;27;20024;-73
2024/01/12 05:14:28;;;;;;;180.35;50.00;;;;;;;1.32;100.00;103330.88;5090654;27;20120;-74
2024/01/12 05:16:54;;;;;;;187.68;53.97;;;;;;;1.26;100.00;103329.94;5092966;27;20047;-73
2024/01/12 05:19:19;;;;;;;206.75;53.97;;;;;;;1.15;100.00;103331.47;5080084;27;20790;-74
2024/01/12 05:21:45;;;;;;;181.85;49.95;;;;;;;1.29;100.00;103336.97;5095873;27;20536;-75
2024/01/12 05:24:10;;;;;;;167.73;49.08;;;;;;;1.34;100.00;103330.03;5096075;27;20382;-73
2024/01/12 05:26:36;;;;;;;204.70;57.42;;;;;;;1.19;100.00;103335.06;5094988;27;20465;-74
2024/01/12 05:29:02;;;;;;;176.27;48.63;;;;;;;1.32;100.00;103337.03;5074865;27;20059;-73
2024/01/12 05:31:27;;;;;;;188.15;51.72;;;;;;;1.34;100.00;103326.53;5098100;27;20051;-73
2024/01/12 05:33:53;;;;;;;150.05;47.03;;;;;;;1.41;100.00;103331.03;5087462;27;20037;-74
2024/01/12 05:36:18;;;;;;;168.90;47.47;;;;;;;1.29;100.00;103332.59;5070300;28;20043;-75
2024/01/12 05:38:44;;;;;;;198.80;54.20;;;;;;;1.34;100.00;103337.91;5084111;27;20026;-73
2024/01/12 05:41:10;;;;;;;214.88;55.53;;;;;;;1.28;100.00;103337.81;5097241;27;20039;-74
2024/01/12 05:43:36;;;;;;;186.27;53.03;;;;;;;1.26;100.00;103336.94;5089890;27;20112;-73
2024/01/12 05:46:01;;;;;;;182.98;51.72;;;;;;;1.37;100.00;103332.72;5089453;27;20039;-73
2024/01/12 05:48:27;;;;;;;160.98;48.00;;;;;;;1.34;100.00;103337.03;5068343;27;20047;-74
2024/01/12 05:50:53;;;;;;;168.98;51.75;;;;;;;1.35;100.00;103328.28;5094465;27;20028;-75
2024/01/12 05:53:22;;;;;;;170.18;44.42;;;;;;;1.43;100.00;103332.78;5099778;27;20792;-73
2024/01/12 05:55:48;;;;;;;159.20;45.75;;;;;;;1.28;100.00;103338.72;5091624;27;20101;-75
2024/01/12 05:58:13;;;;;;;159.00;46.15;;;;;;;1.32;100.00;103333.50;5094023;27;20077;-73
2024/01/12 06:00:39;;;;;;;174.10;50.22;;;;;;;1.28;100.00;103340.47;5094347;27;20043;-74
2024/01/12 06:03:04;;;;;;;146.13;44.65;;;;;;;1.42;100.00;103335.41;5097874;27;20032;-73
2024/01/12 06:05:30;;;;;;;122.78;39.92;;;;;;;1.38;100.00;103333.59;5073159;27;20039;-72
2024/01/12 06:07:55;;;;;;;131.73;41.08;;;;;;;1.40;100.00;103337.13;5084392;27;20044;-73
2024/01/12 06:10:21;;;;;;;130.35;41.97;;;;;;;1.45;100.00;103338.94;5087501;27;20233;-73
2024/01/12 06:12:46;;;;;;;161.52;47.25;;;;;;;1.23;100.00;103339.50;5089542;27;20334;-73
2024/01/12 06:15:12;;;;;;;137.70;42.55;;;;;;;1.23;100.00;103332.50;5063409;28;20425;-72
2024/01/12 06:17:38;;;;;;;153.82;46.17;;;;;;;1.29;100.00;103340.47;5057417;27;20369;-72
2024/01/12 06:20:04;;;;;;;118.15;39.95;;;;;;;1.42;100.00;103343.31;5089557;27;20082;-73
2024/01/12 06:22:30;;;;;;;132.98;42.80;;;;;;;1.45;100.00;103352.09;5068661;27;20048;-72
2024/01/12 06:24:55;;;;;;;151.93;46.58;;;;;;;1.26;100.00;103347.44;5089680;27;20036;-72
2024/01/12 06:27:21;;;;;;;121.75;39.05;;;;;;;1.41;100.00;103347.69;5073126;27;20047;-72
2024/01/12 06:29:46;;;;;;;150.35;41.00;;;;;;;1.47;100.00;103345.13;5084847;27;20377;-72
2024/01/12 06:32:12;;;;;;;128.93;38.97;;;;;;;1.52;100.00;103337.31;5089921;27;20032;-73
2024/01/12 06:34:41;;;;;;;139.68;40.33;;;;;;;1.50;100.00;103339.00;5086896;27;20354;-72
2024/01/12 06:37:06;;;;;;;139.18;42.78;;;;;;;1.50;100.00;103337.28;5087883;27;20250;-72
2024/01/12 06:39:32;;;;;;;124.60;39.45;;;;;;;1.54;100.00;103330.31;5068025;28;20113;-72
2024/01/12 06:41:58;;;;;;;116.07;39.83;;;;;;;1.55;100.00;103332.06;5066749;28;20059;-74
2024/01/12 06:44:24;;;;;;;128.98;44.45;;;;;;;1.55;100.00;103327.69;5074174;27;20044;-74
2024/01/12 06:46:49;;;;;;;137.35;43.95;;;;;;;1.47;100.00;103326.72;5072804;27;20390;-74
2024/01/12 06:49:15;;;;;;;122.43;40.20;;;;;;;1.51;100.00;103330.28;5057329;28;20036;-73
2024/01/12 06:51:40;;;;;;;112.60;37.42;;;;;;;1.59;100.00;103325.13;5072762;28;20048;-74
2024/01/12 06:54:06;;;;;;;138.25;42.45;;;;;;;1.43;100.00;103327.53;5061093;27;20024;-74
2024/01/12 06:56:32;;;;;;;164.73;49.28;;;;;;;1.07;100.00;103334.88;5075561;28;20741;-74
2024/01/12 06:58:58;;;;;;;125.78;41.58;;;;;;;1.39;100.00;103332.72;5076385;28;20135;-74
2024/01/12 07:01:24;;;;;;;125.00;39.15;;;;;;;1.42;100.00;103328.41;5083909;27;20030;-74
2024/01/12 07:03:51;;;;;;;156.95;46.45;;;;;;;1.33;100.00;103325.63;5073172;27;20032;-74
2024/01/12 07:06:17;;;;;;;134.50;40.83;;;;;;;1.40;100.00;103316.97;5082221;28;20071;-74
2024/01/12 07:08:42;;;;;;;95.53;34.95;;;;;;;1.51;100.00;103318.03;5077432;28;20033;-74
2024/01/12 07:11:08;;;;;;;115.28;40.25;;;;;;;1.53;100.00;103315.41;5083866;27;20039;-74
2024/01/12 07:13:33;;;;;;;118.13;40.55;;;;;;;1.48;100.00;103314.47;5076362;28;20028;-74
2024/01/12 07:15:59;;;;;;;135.05;43.80;;;;;;;1.40;100.00;103310.81;5077398;28;20044;-74
2024/01/12 07:18:24;;;;;;;130.73;40.53;;;;;;;1.49;100.00;103316.22;5077945;28;20032;-73
2024/01/12 07:20:50;;;;;;;140.57;42.33;;;;;;;1.30;100.00;103320.31;5084172;28;20397;-74
2024/01/12 07:23:16;;;;;;;110.85;35.53;;;;;;;1.46;100.00;103324.97;5079735;27;20105;-74
2024/01/12 07:25:41;;;;;;;127.28;38.90;;;;;;;1.55;100.00;103329.44;5070677;28;20029;-74
2024/01/12 07:28:07;;;;;;;111.40;38.13;;;;;;;1.60;100.00;103319.88;5074405;28;20043;-74
2024/01/12 07:30:33;;;;;;;139.10;41.70;;;;;;;1.66;100.00;103316.47;5071072;27;20041;-74
2024/01/12 07:32:58;;;;;;;129.90;38.85;;;;;;;1.64;100.00;103316.44;5073085;28;20040;-73
2024/01/12 07:35:24;;;;;;;136.82;41.67;;;;;;;1.38;100.00;103307.31;5072659;27;20025;-72
2024/01/12 07:37:52;;;;;;;122.03;38.28;;;;;;;1.40;100.00;103319.59;5076078;28;20587;-75
2024/01/12 07:40:18;;;;;;;100.60;36.53;;;;;;;1.46;100.00;103326.72;5075891;28;20044;-72
2024/01/12 07:42:44;;;;;;;93.78;31.17;;;;;;;1.62;100.00;103323.44;5075603;28;20028;-74
2024/01/12 07:45:11;;;;;;;94.38;33.67;;;;;;;1.65;100.00;103322.56;5072434;28;20032;-72
2024/01/12 07:47:36;;;;;;;109.07;35.90;;;;;;;1.71;100.00;103326.19;5077978;28;20040;-72
2024/01/12 07:50:02;;;;;;;122.15;39.97;;;;;;;1.43;100.00;103317.03;5073857;28;20032;-74
2024/01/12 07:52:29;;;;;;;100.18;34.40;;;;;;;1.59;100.00;103315.50;5074275;28;20044;-74
2024/01/12 07:54:54;;;;;;;102.38;34.10;;;;;;;1.58;100.00;103326.00;5072955;28;20946;-72
2024/01/12 07:57:20;;;;;;;105.82;34.53;;;;;;;1.69;100.00;103314.75;5074824;28;20064;-74
2024/01/12 07:59:45;;;;;;;107.28;36.60;;;;;;;1.68;100.00;103318.25;5072887;28;21766;-75
2024/01/12 08:02:11;;;;;;;107.07;38.63;;;;;;;1.67;100.00;103311.22;5073051;28;20498;-74
2024/01/12 08:04:37;;;;;;;118.68;39.75;;;;;;;1.66;100.00;103321.75;5070719;28;20044;-72
2024/01/12 08:07:03;;;;;;;136.55;43.78;;;;;;;1.66;100.00;103317.34;5074809;28;20052;-72
2024/01/12 08:09:29;;;;;;;130.15;38.33;;;;;;;1.75;100.00;103317.44;5072384;27;20275;-75
2024/01/12 08:11:55;;;;;;;97.50;33.65;;;;;;;1.82;100.00;103318.44;5073093;28;20051;-75
2024/01/12 08:14:20;;;;;;;108.40;37.00;;;;;;;1.88;100.00;103317.63;5074399;28;20643;-74
2024/01/12 08:16:46;;;;;;;101.10;34.50;;;;;;;1.95;100.00;103319.47;5072476;28;20804;-74
2024/01/12 08:19:11;;;;;;;91.35;32.20;;;;;;;2.00;100.00;103325.66;5069888;27;20029;-74
2024/01/12 08:21:37;;;;;;;99.00;34.58;;;;;;;1.96;100.00;103319.50;5069650;28;20037;-74
2024/01/12 08:24:03;;;;;;;89.70;32.20;;;;;;;2.02;100.00;103319.56;5072934;28;20531;-74
2024/01/12 08:26:28;;;;;;;87.78;31.30;;;;;;;2.09;100.00;103320.50;5074141;28;20028;-74
2024/01/12 08:28:56;;;;;;;90.90;32.10;;;;;;;2.13;100.00;103303.91;5064579;27;20571;-75
2024/01/12 08:31:22;;;;;;;91.38;30.38;;;;;;;2.18;100.00;103314.47;5071240;28;20193;-74
2024/01/12 08:33:49;;;;;;;72.72;28.40;;;;;;;2.05;100.00;103305.53;5077195;28;20063;-74
2024/01/12 08:36:15;;;;;;;85.90;29.65;;;;;;;2.08;100.00;103306.47;5069971;28;20426;-74
2024/01/12 08:38:42;;;;;;;77.75;27.92;;;;;;;2.21;100.00;103312.78;5069531;27;20047;-74
2024/01/12 08:41:08;;;;;;;88.80;28.25;;;;;;;2.13;100.00;103311.78;5091102;27;20036;-74
2024/01/12 08:43:33;;;;;;;73.20;28.33;;;;;;;2.29;100.00;103305.81;5095608;27;21019;-74
2024/01/12 08:45:59;;;;;;;77.18;28.77;;;;;;;2.36;100.00;103308.53;5095383;27;20078;-74
2024/01/12 08:48:24;;;;;;;70.22;27.88;;;;;;;2.34;100.00;103300.63;5082987;27;20032;-74
2024/01/12 08:50:50;;;;;;;67.03;23.85;;;;;;;2.43;100.00;103308.63;5093732;27;20435;-74
2024/01/12 08:53:16;;;;;;;69.80;25.00;;;;;;;2.46;100.00;103313.00;5087056;27;20025;-74
2024/01/12 08:55:42;;;;;;;61.65;24.30;;;;;;;2.50;100.00;103307.78;5087921;27;20040;-74
2024/01/12 08:58:08;;;;;;;68.78;25.48;;;;;;;2.59;100.00;103302.63;5093413;27;20035;-74
2024/01/12 09:00:34;;;;;;;62.10;23.00;;;;;;;2.65;100.00;103304.44;5073760;27;20066;-74
2024/01/12 09:02:59;;;;;;;68.65;24.73;;;;;;;2.69;100.00;103308.84;5068941;27;20040;-74
2024/01/12 09:05:25;;;;;;;58.22;22.50;;;;;;;2.71;100.00;103301.88;5083595;27;20036;-74
2024/01/12 09:07:50;;;;;;;51.28;23.50;;;;;;;2.73;100.00;103308.03;5082897;27;24713;-73
2024/01/12 09:10:16;;;;;;;62.17;23.33;;;;;;;2.71;100.00;103299.25;5090943;27;20093;-74
2024/01/12 09:12:42;;;;;;;55.17;24.15;;;;;;;2.62;100.00;103300.91;5094717;27;20607;-74
2024/01/12 09:15:08;;;;;;;54.67;22.23;;;;;;;2.71;100.00;103296.59;5088685;27;21084;-74
2024/01/12 09:17:34;;;;;;;48.78;20.38;;;;;;;2.82;100.00;103310.75;5088164;27;20136;-73
2024/01/12 09:20:00;;;;;;;49.17;20.05;;;;;;;2.76;100.00;103310.69;5074777;27;20861;-74
2024/01/12 09:22:25;;;;;;;57.15;22.02;;;;;;;2.71;100.00;103306.22;5087068;27;20139;-74
2024/01/12 09:24:52;;;;;;;57.75;20.50;;;;;;;2.75;100.00;103302.75;5061675;28;20036;-74
2024/01/12 09:27:17;;;;;;;58.35;21.38;;;;;;;2.77;100.00;103290.50;5087612;27;20047;-74
2024/01/12 09:29:43;;;;;;;53.35;21.42;;;;;;;2.78;100.00;103287.88;5086005;27;20963;-75
2024/01/12 09:32:09;;;;;;;50.50;20.95;;;;;;;2.89;100.00;103294.97;5084926;27;20043;-75
2024/01/12 09:34:35;;;;;;;50.88;20.63;;;;;;;2.95;100.00;103295.03;5087732;27;20998;-75
2024/01/12 09:37:00;;;;;;;54.53;19.38;;;;;;;2.95;100.00;103297.66;5092397;27;20063;-75
2024/01/12 09:39:26;;;;;;;56.70;19.70;;;;;;;2.99;100.00;103300.34;5077413;27;20051;-74
2024/01/12 09:41:59;;;;;;;55.17;21.23;;;;;;;2.94;100.00;103302.03;5093579;27;20032;-75
2024/01/12 09:44:27;;;;;;;50.42;18.60;;;;;;;3.10;100.00;103301.28;5075854;27;20414;-75
2024/01/12 09:46:57;;;;;;;44.17;20.58;;;;;;;3.18;100.00;103293.44;5092701;27;20048;-75
2024/01/12 09:49:28;;;;;;;55.55;19.67;;;;;;;3.02;100.00;103288.94;5067305;27;20040;-75
2024/01/12 09:51:56;;;;;;;65.25;21.08;;;;;;;3.06;100.00;103293.34;5091352;27;20032;-74
2024/01/12 09:54:22;;;;;;;44.22;18.20;;;;;;;3.22;100.00;103297.00;5087750;27;20514;-75
2024/01/12 09:56:47;;;;;;;57.35;19.63;;;;;;;3.18;100.00;103290.81;5091268;27;20068;-74
2024/01/12 09:59:16;;;;;;;51.65;20.27;;;;;;;3.19;100.00;103279.38;5092910;27;20032;-74
2024/01/12 10:01:42;;;;;;;51.35;19.02;;;;;;;3.18;100.00;103282.03;5100048;27;20040;-75
2024/01/12 10:04:08;;;;;;;51.85;19.70;;;;;;;3.20;100.00;103283.78;5087282;27;20176;-76
2024/01/12 10:06:35;;;;;;;43.75;18.52;;;;;;;3.27;100.00;103293.50;5068376;27;20044;-75
2024/01/12 10:09:01;;;;;;;53.05;19.42;;;;;;;3.24;100.00;103289.97;5048266;27;20104;-75
2024/01/12 10:11:27;;;;;;;49.78;19.13;;;;;;;3.30;100.00;103284.72;5097656;27;20028;-74
2024/01/12 10:13:52;;;;;;;47.13;19.02;;;;;;;3.36;100.00;103277.75;5071516;27;20039;-74
2024/01/12 10:16:18;;;;;;;61.53;20.42;;;;;;;3.48;100.00;103283.97;5083366;27;20032;-75
2024/01/12 10:18:43;;;;;;;41.28;18.75;;;;;;;3.49;100.00;103283.09;5088577;27;20036;-75
2024/01/12 10:21:09;;;;;;;47.47;19.30;;;;;;;3.43;100.00;103275.16;5083256;27;20114;-75
2024/01/12 10:23:35;;;;;;;47.72;18.95;;;;;;;3.44;100.00;103277.78;5081790;27;20139;-75
2024/01/12 10:26:03;;;;;;;57.00;20.38;;;;;;;3.40;100.00;103281.28;5090127;27;20040;-73
2024/01/12 10:28:30;;;;;;;48.92;18.20;;;;;;;3.43;100.00;103288.34;5088258;27;20036;-75
2024/01/12 10:30:55;;;;;;;52.95;18.45;;;;;;;3.51;100.00;103292.75;5095188;27;20109;-75
2024/01/12 10:33:22;;;;;;;49.95;17.45;;;;;;;3.33;100.00;103296.19;5091463;27;20099;-75
2024/01/12 10:35:56;;;;;;;54.50;19.23;;;;;;;3.50;100.00;103292.75;5071655;27;20536;-74
2024/01/12 10:38:23;;;;;;;57.17;18.10;;;;;;;3.53;100.00;103285.75;5086023;27;20036;-74
2024/01/12 10:40:50;;;;;;;44.15;17.98;;;;;;;3.52;100.00;103277.84;5065362;28;20040;-76
2024/01/12 10:43:17;;;;;;;38.60;18.65;;;;;;;3.48;100.00;103278.69;5086344;27;20797;-74
2024/01/12 10:45:45;;;;;;;50.53;19.98;;;;;;;3.43;100.00;103275.16;5093393;27;20367;-75
2024/01/12 10:48:13;;;;;;;54.72;20.58;;;;;;;3.43;100.00;103268.13;5085089;27;20032;-75
2024/01/12 10:50:45;;;;;;;46.72;20.08;;;;;;;3.58;100.00;103267.31;5085945;27;20028;-75
2024/01/12 10:53:20;;;;;;;51.55;20.95;;;;;;;3.51;100.00;103269.00;5078677;27;20105;-74
2024/01/12 10:55:52;;;;;;;56.10;20.98;;;;;;;3.45;100.00;103276.91;5056685;28;21052;-75
2024/01/12 10:58:18;;;;;;;;;;;;;;;3.48;100.00;103269.03;5089127;27;20032;-75